Time;durP1;ratioP1;P1;durP2;ratioP2;P2;SDS_P1;SDS_P2;PMS_P1;PMS_P2;Temp;Humidity;BMP_temperature;BMP_pressure;BME280_temperature;BME280_humidity;BME280_pressure;Samples;Min_cycle;Max_cycle;Signal;HPM_P1;HPM_P2
2022/07/18 00:00:53;;;;;;;4.00;3.70;;;27.00;1.00;;;;;;5090482;28;20213;-74
2022/07/18 00:03:20;;;;;;;7.68;4.07;;;26.90;1.00;;;;;;5090300;28;20237;-71
2022/07/18 00:05:47;;;;;;;4.68;3.38;;;26.90;1.00;;;;;;5090247;28;20210;-70
2022/07/18 00:08:14;;;;;;;3.20;3.00;;;26.80;1.00;;;;;;5090457;28;20202;-74
2022/07/18 00:10:41;;;;;;;3.88;3.40;;;26.80;1.00;;;;;;5090470;28;20229;-73
2022/07/18 00:13:09;;;;;;;4.00;3.40;;;26.90;1.00;;;;;;5089744;28;20209;-70
2022/07/18 00:15:38;;;;;;;4.38;3.65;;;26.80;1.00;;;;;;5090293;28;20702;-70
2022/07/18 00:18:06;;;;;;;3.95;3.65;;;26.80;10.80;;;;;;5090149;28;20202;-73
2022/07/18 00:20:33;;;;;;;5.40;3.63;;;26.70;10.30;;;;;;5090755;28;20202;-73
2022/07/18 00:23:00;;;;;;;4.45;4.05;;;26.70;11.50;;;;;;5090461;28;20209;-69
2022/07/18 00:25:27;;;;;;;4.45;4.05;;;26.50;12.30;;;;;;5090384;28;20201;-75
2022/07/18 00:27:53;;;;;;;5.43;3.95;;;26.50;11.80;;;;;;5090804;28;20251;-77
2022/07/18 00:30:20;;;;;;;3.72;3.42;;;26.40;12.50;;;;;;5090098;28;21148;-75
2022/07/18 00:32:49;;;;;;;4.15;3.22;;;26.40;13.80;;;;;;5090482;28;20237;-82
2022/07/18 00:35:16;;;;;;;5.18;3.30;;;26.30;13.10;;;;;;5090246;28;20210;-78
2022/07/18 00:37:43;;;;;;;3.78;3.47;;;26.30;35.40;;;;;;5090455;28;20689;-79
2022/07/18 00:40:11;;;;;;;3.70;3.45;;;26.30;13.60;;;;;;5089479;28;20247;-76
2022/07/18 00:42:38;;;;;;;3.92;3.63;;;26.20;37.60;;;;;;5090244;28;20209;-73
2022/07/18 00:45:05;;;;;;;7.15;4.30;;;26.10;14.60;;;;;;5089410;28;20270;-70
2022/07/18 00:47:32;;;;;;;4.55;3.22;;;26.10;14.00;;;;;;5090413;28;20243;-73
2022/07/18 00:50:03;;;;;;;4.97;3.38;;;26.00;15.40;;;;;;5090332;28;20233;-69
2022/07/18 00:52:30;;;;;;;4.70;4.07;;;26.00;15.40;;;;;;5090133;28;20216;-72
2022/07/18 00:54:57;;;;;;;3.30;3.10;;;25.90;15.60;;;;;;5090464;28;20206;-75
2022/07/18 00:57:24;;;;;;;3.85;3.50;;;25.80;15.70;;;;;;5075329;28;20213;-71
2022/07/18 01:02:37;;;;;;;5.93;3.67;;;25.70;14.30;;;;;;5093613;28;20586;-72
2022/07/18 01:05:07;;;;;;;3.40;3.05;;;25.70;15.40;;;;;;5093431;28;20213;-72
2022/07/18 01:07:34;;;;;;;3.65;3.45;;;25.70;1.00;;;;;;5093737;28;20206;-71
2022/07/18 01:10:01;;;;;;;5.65;3.65;;;25.70;1.00;;;;;;5093013;28;20645;-70
2022/07/18 01:12:28;;;;;;;3.70;3.40;;;25.60;1.00;;;;;;5093979;28;20668;-75
2022/07/18 01:14:57;;;;;;;4.40;4.00;;;25.70;1.00;;;;;;5094281;28;20198;-74
2022/07/18 01:17:25;;;;;;;4.97;3.45;;;25.60;1.00;;;;;;5093516;28;20255;-74
2022/07/18 01:19:53;;;;;;;3.88;3.60;;;25.60;1.00;;;;;;5093222;28;20213;-71
2022/07/18 01:22:21;;;;;;;3.47;3.22;;;25.50;1.00;;;;;;5092915;28;20590;-72
2022/07/18 01:24:49;;;;;;;4.25;3.22;;;25.60;1.00;;;;;;5092727;28;20669;-69
2022/07/18 01:27:16;;;;;;;4.72;3.80;;;25.50;1.00;;;;;;5092965;28;20205;-71
2022/07/18 01:29:44;;;;;;;4.15;3.42;;;25.40;1.00;;;;;;5093099;28;20229;-69
2022/07/18 01:32:11;;;;;;;4.28;3.97;;;25.30;1.00;;;;;;5092880;28;20206;-70
2022/07/18 01:34:39;;;;;;;4.75;3.80;;;25.30;1.00;;;;;;5093175;28;20560;-70
2022/07/18 01:37:07;;;;;;;3.63;3.17;;;25.20;1.00;;;;;;5080156;28;20206;-70
2022/07/18 01:39:36;;;;;;;4.88;3.67;;;25.20;1.00;;;;;;5074702;28;20202;-78
2022/07/18 01:42:07;;;;;;;7.40;3.60;;;25.20;1.00;;;;;;5078122;28;20205;-78
2022/07/18 01:44:35;;;;;;;4.00;3.70;;;25.20;1.00;;;;;;5088207;28;20727;-76
2022/07/18 01:47:02;;;;;;;6.13;4.10;;;25.20;1.00;;;;;;5083547;28;20240;-75
2022/07/18 01:49:30;;;;;;;3.65;3.45;;;25.20;1.00;;;;;;5093057;28;20225;-76
2022/07/18 01:51:58;;;;;;;4.28;3.63;;;25.40;1.00;;;;;;5093053;28;20293;-76
2022/07/18 01:54:27;;;;;;;4.45;3.35;;;25.30;1.50;;;;;;5078082;28;20206;-73
2022/07/18 01:56:55;;;;;;;3.67;3.38;;;25.30;1.00;;;;;;5092832;28;20209;-78
2022/07/18 01:59:22;;;;;;;3.38;3.17;;;25.20;2.00;;;;;;5092369;28;20206;-78
2022/07/18 02:01:50;;;;;;;3.53;3.22;;;25.30;22.80;;;;;;5092790;28;20573;-77
2022/07/18 02:04:18;;;;;;;3.60;3.05;;;25.20;1.50;;;;;;5092160;28;20206;-73
2022/07/18 02:06:45;;;;;;;4.10;3.70;;;25.20;1.00;;;;;;5092272;28;20202;-74
2022/07/18 02:09:12;;;;;;;4.60;4.20;;;25.10;1.20;;;;;;5092016;28;20217;-75
2022/07/18 02:11:39;;;;;;;3.30;3.10;;;25.10;1.10;;;;;;5077564;28;20259;-79
2022/07/18 02:14:08;;;;;;;3.42;3.22;;;25.20;1.50;;;;;;5091615;28;20623;-72
2022/07/18 02:16:35;;;;;;;5.85;3.13;;;25.00;1.20;;;;;;5092174;28;20206;-77
2022/07/18 02:19:02;;;;;;;5.15;3.60;;;25.00;1.80;;;;;;5091830;28;20275;-77
2022/07/18 02:21:29;;;;;;;3.47;3.28;;;25.10;2.00;;;;;;5092184;28;20731;-71
2022/07/18 02:23:56;;;;;;;4.28;3.42;;;25.00;3.60;;;;;;5078651;28;20257;-77
2022/07/18 02:26:23;;;;;;;3.22;3.03;;;25.00;2.70;;;;;;5091953;28;20239;-77
2022/07/18 02:28:50;;;;;;;3.53;2.90;;;24.90;2.10;;;;;;5091951;28;20202;-78
2022/07/18 02:31:18;;;;;;;3.92;3.63;;;24.90;1.80;;;;;;5091574;28;20793;-78
2022/07/18 02:33:45;;;;;;;3.70;3.40;;;25.00;1.70;;;;;;5092104;28;20205;-76
2022/07/18 02:36:12;;;;;;;6.18;3.40;;;25.00;2.30;;;;;;5091445;28;20202;-77
2022/07/18 02:38:39;;;;;;;3.42;3.10;;;25.00;2.50;;;;;;5091810;28;20210;-76
2022/07/18 02:41:06;;;;;;;4.47;3.47;;;24.90;2.20;;;;;;5091572;28;20250;-76
2022/07/18 02:43:33;;;;;;;5.88;3.55;;;24.80;2.30;;;;;;5091854;28;20213;-72
2022/07/18 02:46:00;;;;;;;3.58;3.28;;;24.90;2.30;;;;;;5077446;28;20201;-73
2022/07/18 02:48:29;;;;;;;3.67;3.38;;;24.90;3.40;;;;;;5092295;28;20540;-70
2022/07/18 02:50:56;;;;;;;3.83;3.53;;;24.90;3.50;;;;;;5091653;28;20306;-69
2022/07/18 02:53:23;;;;;;;3.80;3.50;;;24.80;2.60;;;;;;5091272;28;20266;-71
2022/07/18 02:55:50;;;;;;;5.38;3.55;;;24.90;3.40;;;;;;5091521;28;20552;-74
2022/07/18 02:58:17;;;;;;;4.10;3.67;;;24.80;2.60;;;;;;5091230;28;20201;-70
2022/07/18 03:00:44;;;;;;;4.38;3.28;;;24.70;3.10;;;;;;5091315;28;20731;-69
2022/07/18 03:03:11;;;;;;;3.95;3.75;;;24.70;3.00;;;;;;5091238;28;20232;-70
2022/07/18 03:05:40;;;;;;;4.35;3.97;;;24.60;3.30;;;;;;5091046;28;20734;-70
2022/07/18 03:08:07;;;;;;;3.97;3.67;;;24.60;8.90;;;;;;5090794;28;20247;-72
2022/07/18 03:10:34;;;;;;;3.22;3.00;;;24.50;4.40;;;;;;5091146;28;20709;-71
2022/07/18 03:13:00;;;;;;;3.88;3.58;;;24.60;5.20;;;;;;5090975;28;20676;-68
2022/07/18 03:15:28;;;;;;;4.18;3.88;;;24.70;4.40;;;;;;5091507;28;20209;-69
2022/07/18 03:17:54;;;;;;;4.30;4.00;;;24.60;5.20;;;;;;5091303;28;20246;-71
2022/07/18 03:20:22;;;;;;;3.78;3.47;;;24.60;4.80;;;;;;5090667;28;20262;-71
2022/07/18 03:22:50;;;;;;;4.20;3.90;;;24.50;4.80;;;;;;5091318;28;20592;-69
2022/07/18 03:25:17;;;;;;;6.85;4.72;;;24.40;5.40;;;;;;5090602;28;20206;-70
2022/07/18 03:27:44;;;;;;;3.70;3.38;;;24.50;5.50;;;;;;5091008;28;20565;-70
2022/07/18 03:30:12;;;;;;;4.10;3.75;;;24.40;26.90;;;;;;5090328;28;20278;-71
2022/07/18 03:32:39;;;;;;;4.25;3.85;;;24.30;7.00;;;;;;5091270;28;20205;-75
2022/07/18 03:35:07;;;;;;;4.10;3.80;;;24.20;6.20;;;;;;5090155;28;20640;-74
2022/07/18 03:37:34;;;;;;;4.50;3.65;;;24.30;8.00;;;;;;5090917;28;20259;-72
2022/07/18 03:40:03;;;;;;;4.00;3.70;;;24.30;5.90;;;;;;5090324;28;20669;-68
2022/07/18 03:42:29;;;;;;;3.60;3.30;;;24.20;6.60;;;;;;5090961;28;20209;-71
2022/07/18 03:44:56;;;;;;;5.55;3.28;;;24.20;7.10;;;;;;5081064;28;20248;-75
2022/07/18 03:47:23;;;;;;;4.80;3.88;;;24.30;6.90;;;;;;5086501;28;20213;-74
2022/07/18 03:49:50;;;;;;;4.07;3.65;;;24.20;6.70;;;;;;5090460;28;20286;-72
2022/07/18 03:52:17;;;;;;;3.65;3.35;;;24.30;7.40;;;;;;5090144;28;20288;-73
2022/07/18 03:54:44;;;;;;;3.35;3.15;;;24.10;8.80;;;;;;5090665;28;20634;-75
2022/07/18 03:57:12;;;;;;;4.05;3.67;;;24.10;7.70;;;;;;5090489;28;20209;-75
2022/07/18 03:59:39;;;;;;;3.85;3.55;;;24.10;7.30;;;;;;5090623;28;20271;-73
2022/07/18 04:02:06;;;;;;;4.00;3.65;;;24.10;7.90;;;;;;5090417;28;20206;-73
2022/07/18 04:04:33;;;;;;;3.83;3.53;;;24.10;8.20;;;;;;5090267;28;20240;-75
2022/07/18 04:07:00;;;;;;;4.32;4.03;;;24.10;8.00;;;;;;5090549;28;20259;-67
2022/07/18 04:09:27;;;;;;;4.28;3.40;;;24.00;9.40;;;;;;5090534;28;20213;-67
2022/07/18 04:11:55;;;;;;;4.45;4.05;;;24.10;9.00;;;;;;5090902;28;20236;-67
2022/07/18 04:14:23;;;;;;;4.38;4.05;;;23.90;9.30;;;;;;5090123;28;20267;-67
2022/07/18 04:16:50;;;;;;;4.22;3.92;;;23.90;9.20;;;;;;5090580;28;20262;-67
2022/07/18 04:19:17;;;;;;;4.32;4.03;;;23.90;9.50;;;;;;5089855;28;20585;-67
2022/07/18 04:21:45;;;;;;;4.13;3.78;;;24.00;10.50;;;;;;5090242;28;20205;-67
2022/07/18 04:24:12;;;;;;;5.00;4.28;;;23.80;10.60;;;;;;5090229;28;20205;-67
2022/07/18 04:26:39;;;;;;;3.97;3.67;;;23.80;9.80;;;;;;5090064;28;20201;-69
2022/07/18 04:29:06;;;;;;;4.55;4.15;;;23.80;11.10;;;;;;5090152;28;20205;-67
2022/07/18 04:31:34;;;;;;;8.27;3.97;;;23.80;12.40;;;;;;5089969;28;20237;-68
2022/07/18 04:34:01;;;;;;;4.63;4.22;;;23.80;12.70;;;;;;5089962;28;20559;-68
2022/07/18 04:36:28;;;;;;;5.15;4.00;;;24.00;11.30;;;;;;5092628;28;20209;-67
2022/07/18 04:38:55;;;;;;;3.83;3.53;;;23.80;12.40;;;;;;5094662;28;20605;-67
2022/07/18 04:41:24;;;;;;;4.70;4.38;;;23.80;11.60;;;;;;5093775;28;20676;-66
2022/07/18 04:43:52;;;;;;;4.72;4.32;;;23.70;12.60;;;;;;5092853;28;20258;-67
2022/07/18 04:46:19;;;;;;;5.18;4.70;;;23.80;12.60;;;;;;5080649;28;20262;-67
2022/07/18 04:48:47;;;;;;;4.57;4.13;;;23.90;12.60;;;;;;5093914;28;20206;-69
2022/07/18 04:51:14;;;;;;;4.55;4.25;;;23.80;12.90;;;;;;5093105;28;20221;-67
2022/07/18 04:53:41;;;;;;;4.38;3.78;;;23.80;13.00;;;;;;5094145;28;20237;-67
2022/07/18 04:56:09;;;;;;;5.00;4.10;;;23.90;13.00;;;;;;5093350;28;20205;-68
2022/07/18 04:58:36;;;;;;;4.78;4.38;;;24.10;14.90;;;;;;5093636;28;20284;-67
2022/07/18 05:01:03;;;;;;;4.75;4.45;;;23.90;13.40;;;;;;5093150;28;20209;-67
2022/07/18 05:03:30;;;;;;;4.30;3.90;;;23.90;15.00;;;;;;5093738;28;20660;-68
2022/07/18 05:05:58;;;;;;;4.88;4.22;;;23.80;15.40;;;;;;5093999;28;20266;-67
2022/07/18 05:08:25;;;;;;;5.50;5.00;;;23.80;15.10;;;;;;5093803;28;20247;-67
2022/07/18 05:10:52;;;;;;;5.07;4.68;;;23.90;15.50;;;;;;5093632;28;20781;-69
2022/07/18 05:13:19;;;;;;;4.60;4.28;;;23.80;16.00;;;;;;5092908;28;20283;-68
2022/07/18 05:15:46;;;;;;;4.45;4.15;;;23.90;16.20;;;;;;5093230;28;20251;-67
2022/07/18 05:18:13;;;;;;;6.80;5.47;;;23.90;16.70;;;;;;5092859;28;20247;-67
2022/07/18 05:20:41;;;;;;;4.90;3.83;;;23.90;16.20;;;;;;5093531;28;20209;-68
2022/07/18 05:23:09;;;;;;;4.70;4.30;;;23.90;17.10;;;;;;5092823;28;20217;-68
2022/07/18 05:25:36;;;;;;;4.72;4.25;;;24.00;17.70;;;;;;5093355;28;20298;-67
2022/07/18 05:28:03;;;;;;;6.57;4.32;;;24.10;16.00;;;;;;5092782;28;20205;-68
2022/07/18 05:30:30;;;;;;;4.40;4.00;;;24.30;17.50;;;;;;5093052;28;20202;-68
2022/07/18 05:32:57;;;;;;;4.45;4.15;;;24.50;17.60;;;;;;5093803;28;20205;-67
2022/07/18 05:35:24;;;;;;;4.18;3.88;;;24.30;17.70;;;;;;5092971;28;20202;-71
2022/07/18 05:37:51;;;;;;;4.80;4.32;;;24.30;17.70;;;;;;5093290;28;20201;-68
2022/07/18 05:40:20;;;;;;;4.90;4.40;;;24.50;19.00;;;;;;5092415;28;20209;-68
2022/07/18 05:42:47;;;;;;;5.70;5.15;;;24.40;17.50;;;;;;5092964;28;20209;-69
2022/07/18 05:45:14;;;;;;;5.05;4.55;;;24.40;19.40;;;;;;5079666;28;20210;-67
2022/07/18 05:47:41;;;;;;;5.57;4.93;;;24.40;18.20;;;;;;5091314;28;20244;-68
2022/07/18 05:50:09;;;;;;;4.60;4.20;;;24.50;19.10;;;;;;5092582;28;20213;-68
2022/07/18 05:52:37;;;;;;;6.57;4.63;;;24.70;20.60;;;;;;5092611;28;20584;-68
2022/07/18 05:55:05;;;;;;;6.20;4.70;;;24.80;19.00;;;;;;5092487;28;20638;-67
2022/07/18 05:57:34;;;;;;;4.43;4.07;;;24.80;18.20;;;;;;5089229;28;20262;-68
2022/07/18 06:00:01;;;;;;;4.57;4.18;;;24.60;18.60;;;;;;5080477;28;20206;-68
2022/07/18 06:02:28;;;;;;;6.70;4.43;;;24.60;18.90;;;;;;5085089;28;20559;-70
2022/07/18 06:04:55;;;;;;;3.92;3.63;;;24.80;20.00;;;;;;5093085;28;20665;-73
2022/07/18 06:07:22;;;;;;;4.70;4.40;;;24.90;19.20;;;;;;5092117;28;20685;-72
2022/07/18 06:09:49;;;;;;;5.93;4.80;;;24.90;19.80;;;;;;5092266;28;20803;-73
2022/07/18 06:12:16;;;;;;;4.68;4.28;;;25.20;19.20;;;;;;5091861;28;20592;-74
2022/07/18 06:14:45;;;;;;;5.13;4.72;;;25.20;19.50;;;;;;5092271;28;20205;-72
2022/07/18 06:17:12;;;;;;;5.85;5.05;;;25.30;20.90;;;;;;5092435;28;20198;-73
2022/07/18 06:19:39;;;;;;;5.03;4.50;;;25.40;19.10;;;;;;5092393;28;20239;-71
2022/07/18 06:22:06;;;;;;;4.75;4.35;;;25.40;19.40;;;;;;5081362;28;20198;-76
2022/07/18 06:24:33;;;;;;;5.07;4.68;;;25.70;18.70;;;;;;5085958;28;20237;-73
2022/07/18 06:27:01;;;;;;;4.07;3.78;;;25.80;18.70;;;;;;5087200;28;20255;-74
2022/07/18 06:29:28;;;;;;;4.50;4.10;;;26.00;18.60;;;;;;5090064;28;20201;-73
2022/07/18 06:31:56;;;;;;;4.80;4.40;;;26.00;19.60;;;;;;5092636;28;20278;-73
2022/07/18 06:34:23;;;;;;;4.35;4.03;;;26.20;19.30;;;;;;5080351;28;20276;-83
2022/07/18 06:36:50;;;;;;;5.50;4.47;;;26.30;18.90;;;;;;5093330;28;20591;-85
2022/07/18 06:39:18;;;;;;;4.35;4.05;;;26.40;18.20;;;;;;5091784;28;20267;-78
2022/07/18 06:41:46;;;;;;;4.40;4.10;;;26.40;17.30;;;;;;5092771;28;20209;-76
2022/07/18 06:44:13;;;;;;;4.22;3.83;;;26.50;17.90;;;;;;5087736;28;20279;-72
2022/07/18 06:46:40;;;;;;;4.95;4.30;;;26.50;18.10;;;;;;5082380;28;20205;-76
2022/07/18 06:49:09;;;;;;;4.53;4.22;;;26.70;17.50;;;;;;5091622;28;20251;-74
2022/07/18 06:51:36;;;;;;;4.07;3.78;;;26.90;18.50;;;;;;5092095;28;20326;-77
2022/07/18 06:54:03;;;;;;;6.22;3.90;;;27.00;17.10;;;;;;5091634;28;20327;-83
2022/07/18 06:56:30;;;;;;;5.20;4.47;;;27.20;17.90;;;;;;5091867;28;20205;-75
2022/07/18 06:58:57;;;;;;;5.18;3.85;;;27.40;16.80;;;;;;5087661;28;20205;-80
2022/07/18 07:01:24;;;;;;;4.28;3.95;;;27.50;17.10;;;;;;5085853;28;20229;-79
2022/07/18 07:03:51;;;;;;;4.90;3.95;;;27.60;16.60;;;;;;5091927;28;20202;-81
2022/07/18 07:06:20;;;;;;;4.63;4.00;;;27.80;16.60;;;;;;5077394;28;20206;-77
2022/07/18 07:08:46;;;;;;;6.32;3.67;;;28.00;15.50;;;;;;5091708;28;20565;-78
2022/07/18 07:11:14;;;;;;;3.42;3.15;;;28.20;16.10;;;;;;5090871;28;20229;-86
2022/07/18 07:13:41;;;;;;;5.93;3.33;;;28.50;15.80;;;;;;5091437;28;20201;-77
2022/07/18 07:16:08;;;;;;;3.35;3.05;;;28.70;14.90;;;;;;5091153;28;20213;-70
2022/07/18 07:18:35;;;;;;;5.30;3.33;;;29.00;14.50;;;;;;5085076;28;20264;-69
2022/07/18 07:21:02;;;;;;;3.75;3.45;;;29.20;14.30;;;;;;5077172;28;20210;-74
2022/07/18 07:23:31;;;;;;;6.90;3.70;;;29.40;13.60;;;;;;5071323;28;20313;-68
2022/07/18 07:25:58;;;;;;;3.28;3.08;;;29.50;13.50;;;;;;5071456;28;20681;-74
2022/07/18 07:28:25;;;;;;;4.97;3.80;;;29.60;13.30;;;;;;5072111;28;20636;-75
2022/07/18 07:30:51;;;;;;;4.60;3.50;;;29.70;12.80;;;;;;5071872;28;20206;-74
2022/07/18 07:33:19;;;;;;;3.90;3.17;;;29.80;13.30;;;;;;5073008;28;20669;-77
2022/07/18 07:35:46;;;;;;;4.00;3.33;;;30.00;12.10;;;;;;5072516;28;20263;-75
2022/07/18 07:38:18;;;;;;;3.17;2.97;;;30.10;12.10;;;;;;5075300;28;20213;-77
2022/07/18 07:40:47;;;;;;;3.83;3.53;;;30.20;12.40;;;;;;5073312;28;20736;-77
2022/07/18 07:43:16;;;;;;;3.50;3.20;;;30.50;12.00;;;;;;5077470;28;20209;-76
2022/07/18 07:45:43;;;;;;;3.90;3.13;;;30.50;11.20;;;;;;5071253;28;20255;-70
2022/07/18 07:48:10;;;;;;;3.58;3.28;;;30.80;11.40;;;;;;5090325;28;20229;-69
2022/07/18 07:50:37;;;;;;;5.10;4.07;;;30.90;11.20;;;;;;5077399;28;20260;-69
2022/07/18 07:53:05;;;;;;;5.57;3.85;;;30.70;11.00;;;;;;5071864;28;20226;-70
2022/07/18 07:55:32;;;;;;;3.13;2.92;;;30.90;11.10;;;;;;5072175;28;20720;-69
2022/07/18 07:58:00;;;;;;;5.07;4.05;;;30.90;10.40;;;;;;5072765;28;20658;-70
2022/07/18 08:00:28;;;;;;;4.13;3.78;;;31.10;10.30;;;;;;5072743;28;20259;-68
2022/07/18 08:02:57;;;;;;;5.07;3.47;;;31.20;10.00;;;;;;5073199;28;20216;-68
2022/07/18 08:05:25;;;;;;;3.92;3.63;;;31.20;10.20;;;;;;5072054;28;20213;-74
2022/07/18 08:07:52;;;;;;;4.05;2.88;;;31.30;9.80;;;;;;5082555;28;20591;-71
2022/07/18 08:10:19;;;;;;;3.78;3.45;;;31.60;10.30;;;;;;5072672;28;20206;-71
2022/07/18 08:12:46;;;;;;;4.57;3.28;;;32.10;9.10;;;;;;5079069;28;20241;-71
2022/07/18 08:15:14;;;;;;;5.93;3.25;;;31.90;8.70;;;;;;5077283;28;20207;-72
2022/07/18 08:17:41;;;;;;;3.53;3.17;;;32.40;10.20;;;;;;5079783;28;20210;-69
2022/07/18 08:20:11;;;;;;;4.03;2.88;;;32.10;9.50;;;;;;5079521;28;20236;-69
2022/07/18 08:22:38;;;;;;;3.45;3.05;;;32.10;8.30;;;;;;5077435;28;20242;-70
2022/07/18 08:25:06;;;;;;;3.92;3.50;;;32.20;29.90;;;;;;5081414;28;20210;-68
2022/07/18 08:27:32;;;;;;;6.38;3.55;;;32.20;8.30;;;;;;5085101;28;20255;-69
2022/07/18 08:29:59;;;;;;;4.45;2.70;;;32.20;8.70;;;;;;5078788;28;20231;-67
2022/07/18 08:32:28;;;;;;;3.25;3.05;;;32.40;7.00;;;;;;5078770;28;20230;-68
2022/07/18 08:34:55;;;;;;;3.70;3.40;;;32.40;6.80;;;;;;5084721;28;20206;-69
2022/07/18 08:37:22;;;;;;;3.95;3.65;;;32.70;8.30;;;;;;5087333;28;20704;-70
2022/07/18 08:39:49;;;;;;;4.70;2.60;;;32.70;8.00;;;;;;5083726;28;20671;-67
2022/07/18 08:42:19;;;;;;;4.75;2.70;;;32.60;7.60;;;;;;5089016;28;20561;-70
2022/07/18 08:44:47;;;;;;;4.93;2.70;;;32.50;6.10;;;;;;5081131;28;20569;-68
2022/07/18 08:47:18;;;;;;;4.25;2.78;;;32.50;5.90;;;;;;5088099;28;20201;-69
2022/07/18 08:49:47;;;;;;;3.05;2.85;;;32.60;6.00;;;;;;5094229;28;20337;-71
2022/07/18 08:52:15;;;;;;;6.18;3.08;;;32.60;4.70;;;;;;5092683;28;20229;-70
2022/07/18 08:54:42;;;;;;;3.80;3.50;;;32.80;5.70;;;;;;5093141;28;20262;-68
2022/07/18 08:57:10;;;;;;;5.20;3.10;;;33.00;5.80;;;;;;5093532;28;20258;-69
2022/07/18 08:59:37;;;;;;;2.90;2.70;;;33.80;8.10;;;;;;5093678;28;20204;-69
2022/07/18 09:02:04;;;;;;;4.05;3.28;;;36.00;9.60;;;;;;5093626;28;20213;-69
2022/07/18 09:04:35;;;;;;;6.15;3.10;;;35.30;7.60;;;;;;5093719;28;20567;-71
2022/07/18 09:07:05;;;;;;;4.13;3.00;;;35.30;7.50;;;;;;5093191;28;20729;-69
2022/07/18 09:09:32;;;;;;;3.10;2.90;;;36.10;10.40;;;;;;5093462;28;20205;-71
2022/07/18 09:12:02;;;;;;;3.17;2.60;;;37.20;10.60;;;;;;5093666;28;20224;-69
2022/07/18 09:14:35;;;;;;;2.63;2.50;;;36.70;9.90;;;;;;5090595;28;20212;-69
2022/07/18 09:17:08;;;;;;;4.20;2.97;;;35.90;9.00;;;;;;5080614;28;20296;-69
2022/07/18 09:19:36;;;;;;;3.90;2.42;;;35.40;7.90;;;;;;5072916;28;20259;-69
2022/07/18 09:22:19;;;;;;;2.90;2.70;;;35.30;6.50;;;;;;5072212;28;20201;-69
2022/07/18 09:24:58;;;;;;;5.90;3.30;;;34.80;7.00;;;;;;5073041;28;20205;-70
2022/07/18 09:27:31;;;;;;;6.18;2.85;;;36.00;7.90;;;;;;5072928;28;20212;-70
2022/07/18 09:30:26;;;;;;;2.58;2.38;;;36.30;8.00;;;;;;5073289;28;20555;-70
2022/07/18 09:32:56;;;;;;;4.55;3.13;;;38.30;10.50;;;;;;5072950;28;20278;-70
2022/07/18 09:35:27;;;;;;;4.18;3.55;;;37.30;9.00;;;;;;5072499;28;20202;-69
2022/07/18 09:38:02;;;;;;;3.40;3.15;;;36.90;10.00;;;;;;5072658;28;20212;-68
2022/07/18 09:40:31;;;;;;;4.43;4.00;;;36.20;7.80;;;;;;5073110;28;20627;-69
2022/07/18 09:43:00;;;;;;;6.72;3.22;;;36.40;7.80;;;;;;5072892;28;20205;-73
2022/07/18 09:45:29;;;;;;;3.58;2.90;;;37.40;9.30;;;;;;5072767;28;20239;-69
2022/07/18 09:47:58;;;;;;;3.80;3.10;;;37.40;10.40;;;;;;5093496;28;20278;-69
2022/07/18 09:50:30;;;;;;;4.22;3.05;;;37.90;11.20;;;;;;5093169;28;20208;-71
2022/07/18 09:53:15;;;;;;;3.20;2.88;;;39.20;13.70;;;;;;5093079;28;20278;-69
2022/07/18 09:55:48;;;;;;;4.68;3.65;;;40.50;16.40;;;;;;5092791;28;20664;-69
2022/07/18 09:58:18;;;;;;;3.35;3.15;;;37.30;10.10;;;;;;5088257;28;20691;-70
2022/07/18 10:00:45;;;;;;;4.50;3.42;;;37.10;9.90;;;;;;5092882;28;20720;-70
2022/07/18 10:03:12;;;;;;;3.83;3.28;;;38.40;12.70;;;;;;5092507;28;20254;-69
2022/07/18 10:05:41;;;;;;;4.35;3.58;;;38.50;10.90;;;;;;5092346;28;20209;-69
2022/07/18 10:08:11;;;;;;;3.05;2.78;;;40.00;15.50;;;;;;5092106;28;20676;-69
2022/07/18 10:10:40;;;;;;;3.22;2.80;;;39.60;13.40;;;;;;5092792;28;20201;-68
2022/07/18 10:13:08;;;;;;;4.70;3.50;;;39.40;14.70;;;;;;5091869;28;20279;-70
2022/07/18 10:15:37;;;;;;;3.38;3.08;;;39.30;14.40;;;;;;5092407;28;20208;-70
2022/07/18 10:18:05;;;;;;;4.55;3.00;;;39.50;14.80;;;;;;5091846;28;20270;-71
2022/07/18 10:20:36;;;;;;;3.72;3.30;;;39.80;15.10;;;;;;5092195;28;20204;-68
2022/07/18 10:23:18;;;;;;;3.08;2.88;;;38.30;11.50;;;;;;5091891;28;20258;-69
2022/07/18 10:25:46;;;;;;;4.40;2.85;;;39.10;13.00;;;;;;5092324;28;20205;-68
2022/07/18 10:28:14;;;;;;;5.22;3.10;;;40.40;13.40;;;;;;5091780;28;20231;-70
2022/07/18 10:30:46;;;;;;;3.30;3.10;;;40.50;15.30;;;;;;5092270;28;20208;-69
2022/07/18 10:33:39;;;;;;;4.82;2.92;;;41.90;19.10;;;;;;5090704;28;20723;-70
2022/07/18 10:36:08;;;;;;;6.70;3.22;;;42.80;20.40;;;;;;5081213;28;20201;-70
2022/07/18 10:38:37;;;;;;;4.63;3.05;;;42.90;21.70;;;;;;5089199;28;20250;-73
2022/07/18 10:41:10;;;;;;;3.78;3.45;;;40.90;14.10;;;;;;5091528;28;20273;-68
2022/07/18 10:43:42;;;;;;;8.32;2.75;;;37.70;3.10;;;;;;5091907;28;20312;-69
2022/07/18 10:46:10;;;;;;;4.95;3.28;;;36.70;1.00;;;;;;5077128;28;20266;-68
2022/07/18 10:48:57;;;;;;;5.20;4.45;;;35.70;1.00;;;;;;5091696;28;20702;-70
2022/07/18 10:51:35;;;;;;;4.75;3.38;;;35.70;1.00;;;;;;5078627;28;20196;-72
2022/07/18 10:54:09;;;;;;;4.55;3.47;;;35.40;1.00;;;;;;5091288;28;20286;-72
2022/07/18 10:57:10;;;;;;;2.90;2.70;;;35.50;1.00;;;;;;5091753;28;20236;-70
2022/07/18 10:59:39;;;;;;;4.63;3.42;;;35.20;1.00;;;;;;5091489;28;20199;-69
2022/07/18 11:02:08;;;;;;;4.65;4.00;;;35.40;1.00;;;;;;5091239;28;20285;-69
2022/07/18 11:04:40;;;;;;;5.22;3.08;;;35.90;1.00;;;;;;5091196;28;20288;-70
2022/07/18 11:07:11;;;;;;;3.80;2.95;;;35.60;1.00;;;;;;5091159;28;20204;-69
2022/07/18 11:09:44;;;;;;;2.60;2.40;;;35.60;1.00;;;;;;5091397;28;20208;-68
2022/07/18 11:12:26;;;;;;;3.53;3.10;;;36.00;1.00;;;;;;5090825;28;20684;-70
2022/07/18 11:15:08;;;;;;;7.10;2.60;;;35.60;1.00;;;;;;5091125;28;20205;-68
2022/07/18 11:18:01;;;;;;;3.22;2.92;;;36.20;1.00;;;;;;5091425;28;20236;-69
2022/07/18 11:20:40;;;;;;;3.42;2.60;;;36.40;1.00;;;;;;5079748;28;20205;-68
2022/07/18 11:23:19;;;;;;;10.55;3.33;;;36.70;1.00;;;;;;5090618;28;20224;-68
2022/07/18 11:25:48;;;;;;;4.60;2.70;;;36.40;1.00;;;;;;5091332;28;20208;-68
2022/07/18 11:28:16;;;;;;;3.25;2.60;;;36.40;1.00;;;;;;5090659;28;20239;-69
2022/07/18 11:30:43;;;;;;;6.45;3.30;;;36.50;18.00;;;;;;5091267;28;20409;-72
2022/07/18 11:33:25;;;;;;;3.30;3.05;;;36.70;1.00;;;;;;5090121;28;20221;-68
2022/07/18 11:35:53;;;;;;;4.80;3.22;;;36.50;1.00;;;;;;5086857;28;20205;-69
2022/07/18 11:38:20;;;;;;;4.32;3.00;;;36.80;1.00;;;;;;5075394;28;20596;-69
2022/07/18 11:40:50;;;;;;;3.97;3.08;;;36.10;1.00;;;;;;5071418;28;20649;-68
2022/07/18 11:43:25;;;;;;;4.35;3.33;;;36.20;1.00;;;;;;5071875;28;20205;-70
2022/07/18 11:46:03;;;;;;;8.70;3.17;;;36.00;1.00;;;;;;5070272;28;20677;-69
2022/07/18 11:48:30;;;;;;;5.30;2.75;;;36.30;1.00;;;;;;5071174;28;20198;-71
2022/07/18 11:50:57;;;;;;;2.72;2.40;;;36.80;1.00;;;;;;5072614;28;20205;-70
2022/07/18 11:53:24;;;;;;;3.45;3.15;;;37.00;1.00;;;;;;5071557;28;20268;-69
2022/07/18 11:55:54;;;;;;;2.83;2.63;;;37.00;1.00;;;;;;5073842;28;20196;-68
2022/07/18 11:58:21;;;;;;;2.78;2.28;;;36.90;1.00;;;;;;5069601;28;20263;-69
2022/07/18 12:00:50;;;;;;;4.05;2.72;;;37.00;1.00;;;;;;5074988;28;20239;-70
2022/07/18 12:03:19;;;;;;;3.08;2.88;;;36.90;1.00;;;;;;5072439;28;20201;-68
2022/07/18 12:05:49;;;;;;;4.90;3.30;;;37.00;1.00;;;;;;5076017;28;20294;-72
2022/07/18 12:08:36;;;;;;;3.50;2.72;;;37.10;1.00;;;;;;5073135;28;20284;-70
2022/07/18 12:11:10;;;;;;;6.63;3.47;;;37.20;1.00;;;;;;5077032;28;20258;-71
2022/07/18 12:13:42;;;;;;;3.80;3.45;;;36.90;1.00;;;;;;5074118;28;20236;-72
2022/07/18 12:16:09;;;;;;;3.58;3.28;;;37.00;1.00;;;;;;5084207;28;20683;-71
2022/07/18 12:18:36;;;;;;;2.95;2.75;;;37.40;1.00;;;;;;5075313;28;20262;-73
2022/07/18 12:21:09;;;;;;;4.03;3.70;;;37.10;1.00;;;;;;5080245;28;20208;-71
2022/07/18 12:23:36;;;;;;;2.75;2.53;;;37.00;1.00;;;;;;5076150;28;20209;-73
2022/07/18 12:26:03;;;;;;;9.15;3.80;;;36.90;1.00;;;;;;5081817;28;20211;-71
2022/07/18 12:28:32;;;;;;;7.82;3.80;;;37.10;1.00;;;;;;5078529;28;20251;-73
2022/07/18 12:30:59;;;;;;;5.75;3.42;;;37.00;1.00;;;;;;5074618;28;20648;-72
2022/07/18 12:33:27;;;;;;;4.78;3.97;;;37.10;1.00;;;;;;5080768;28;20227;-72
2022/07/18 12:35:59;;;;;;;3.97;3.17;;;37.10;1.00;;;;;;5082889;28;20205;-72
2022/07/18 12:38:26;;;;;;;5.38;4.40;;;37.50;1.00;;;;;;5079504;28;20201;-73
2022/07/18 12:40:57;;;;;;;4.13;3.83;;;37.40;1.00;;;;;;5074278;28;20240;-74
2022/07/18 12:43:27;;;;;;;5.30;3.53;;;37.40;1.00;;;;;;5084034;28;20592;-67
2022/07/18 12:45:56;;;;;;;4.97;3.35;;;37.30;1.00;;;;;;5069946;28;20209;-68
2022/07/18 12:48:23;;;;;;;4.18;3.42;;;37.00;1.00;;;;;;5070264;28;20662;-67
2022/07/18 12:51:00;;;;;;;4.78;3.72;;;37.30;1.00;;;;;;5072331;28;20273;-69
2022/07/18 12:53:27;;;;;;;4.10;3.72;;;37.70;1.00;;;;;;5078193;28;20239;-68
2022/07/18 12:55:55;;;;;;;4.60;3.78;;;37.60;1.00;;;;;;5072661;28;20300;-66
2022/07/18 12:58:22;;;;;;;3.22;2.92;;;37.30;1.00;;;;;;5079724;28;20292;-68
2022/07/18 13:00:50;;;;;;;3.50;3.08;;;37.70;1.00;;;;;;5078266;28;20273;-70
2022/07/18 13:03:18;;;;;;;5.78;3.63;;;37.80;1.00;;;;;;5076400;28;20205;-68